sensor_id;sensor_type;location;lat;lon;timestamp;P1;durP1;ratioP1;P2;durP2;ratioP2
8113;SDS011;4099;52.684;9.918;2023-09-18T00:03:35;46.77;;;44.40;;
8113;SDS011;4099;52.684;9.918;2023-09-18T00:08:38;53.10;;;50.27;;
8113;SDS011;4099;52.684;9.918;2023-09-18T00:13:42;53.00;;;50.40;;
8113;SDS011;4099;52.684;9.918;2023-09-18T00:18:44;52.13;;;49.60;;
8113;SDS011;4099;52.684;9.918;2023-09-18T00:23:45;54.07;;;51.47;;
8113;SDS011;4099;52.684;9.918;2023-09-18T00:28:49;52.80;;;50.20;;
8113;SDS011;4099;52.684;9.918;2023-09-18T00:33:50;47.83;;;45.40;;
8113;SDS011;4099;52.684;9.918;2023-09-18T00:38:52;41.07;;;38.93;;
8113;SDS011;4099;52.684;9.918;2023-09-18T00:43:55;35.40;;;33.53;;
8113;SDS011;4099;52.684;9.918;2023-09-18T00:48:57;44.17;;;41.77;;
8113;SDS011;4099;52.684;9.918;2023-09-18T00:53:59;48.13;;;45.83;;
8113;SDS011;4099;52.684;9.918;2023-09-18T00:59:03;50.47;;;47.97;;
8113;SDS011;4099;52.684;9.918;2023-09-18T01:04:05;44.33;;;41.93;;
8113;SDS011;4099;52.684;9.918;2023-09-18T01:09:07;39.03;;;36.93;;
8113;SDS011;4099;52.684;9.918;2023-09-18T01:14:16;41.93;;;39.80;;
8113;SDS011;4099;52.684;9.918;2023-09-18T01:19:34;38.10;;;36.13;;
8113;SDS011;4099;52.684;9.918;2023-09-18T01:24:41;36.87;;;34.97;;
8113;SDS011;4099;52.684;9.918;2023-09-18T01:29:43;37.57;;;35.57;;
8113;SDS011;4099;52.684;9.918;2023-09-18T01:34:46;36.53;;;34.63;;
8113;SDS011;4099;52.684;9.918;2023-09-18T01:39:51;42.27;;;39.90;;
8113;SDS011;4099;52.684;9.918;2023-09-18T01:44:54;42.93;;;40.77;;
8113;SDS011;4099;52.684;9.918;2023-09-18T01:49:56;38.70;;;36.67;;
8113;SDS011;4099;52.684;9.918;2023-09-18T01:54:59;42.23;;;40.13;;
8113;SDS011;4099;52.684;9.918;2023-09-18T02:00:01;43.83;;;41.57;;
8113;SDS011;4099;52.684;9.918;2023-09-18T02:05:12;45.07;;;42.70;;
8113;SDS011;4099;52.684;9.918;2023-09-18T02:10:16;39.50;;;37.40;;
8113;SDS011;4099;52.684;9.918;2023-09-18T02:15:17;35.07;;;33.13;;
8113;SDS011;4099;52.684;9.918;2023-09-18T02:20:19;31.60;;;29.90;;
8113;SDS011;4099;52.684;9.918;2023-09-18T02:25:22;32.20;;;30.40;;
8113;SDS011;4099;52.684;9.918;2023-09-18T02:30:24;31.73;;;29.83;;
8113;SDS011;4099;52.684;9.918;2023-09-18T02:35:27;30.57;;;28.87;;
8113;SDS011;4099;52.684;9.918;2023-09-18T02:40:30;30.23;;;28.13;;
8113;SDS011;4099;52.684;9.918;2023-09-18T02:45:32;29.37;;;27.67;;
8113;SDS011;4099;52.684;9.918;2023-09-18T02:50:34;29.27;;;27.57;;
8113;SDS011;4099;52.684;9.918;2023-09-18T02:55:38;33.00;;;31.00;;
8113;SDS011;4099;52.684;9.918;2023-09-18T03:00:41;46.90;;;44.50;;
8113;SDS011;4099;52.684;9.918;2023-09-18T03:05:44;46.97;;;44.67;;
8113;SDS011;4099;52.684;9.918;2023-09-18T03:10:47;45.97;;;43.67;;
8113;SDS011;4099;52.684;9.918;2023-09-18T03:15:49;37.93;;;35.77;;
8113;SDS011;4099;52.684;9.918;2023-09-18T03:20:51;36.43;;;34.37;;
8113;SDS011;4099;52.684;9.918;2023-09-18T03:25:56;32.93;;;31.13;;
8113;SDS011;4099;52.684;9.918;2023-09-18T03:31:00;33.20;;;31.27;;
8113;SDS011;4099;52.684;9.918;2023-09-18T03:36:05;32.10;;;30.20;;
8113;SDS011;4099;52.684;9.918;2023-09-18T03:41:10;36.17;;;34.23;;
8113;SDS011;4099;52.684;9.918;2023-09-18T03:46:12;47.13;;;44.80;;
8113;SDS011;4099;52.684;9.918;2023-09-18T03:51:19;38.67;;;36.67;;
8113;SDS011;4099;52.684;9.918;2023-09-18T03:56:22;34.53;;;32.60;;
8113;SDS011;4099;52.684;9.918;2023-09-18T04:01:25;40.73;;;38.57;;
8113;SDS011;4099;52.684;9.918;2023-09-18T04:06:35;37.43;;;35.30;;
8113;SDS011;4099;52.684;9.918;2023-09-18T04:11:39;36.50;;;34.60;;
8113;SDS011;4099;52.684;9.918;2023-09-18T04:16:40;36.43;;;34.53;;
8113;SDS011;4099;52.684;9.918;2023-09-18T04:21:44;32.33;;;30.40;;
8113;SDS011;4099;52.684;9.918;2023-09-18T04:26:48;31.77;;;30.07;;
8113;SDS011;4099;52.684;9.918;2023-09-18T04:31:51;32.30;;;30.37;;
8113;SDS011;4099;52.684;9.918;2023-09-18T04:36:54;29.73;;;28.03;;
8113;SDS011;4099;52.684;9.918;2023-09-18T04:41:57;26.70;;;24.90;;
8113;SDS011;4099;52.684;9.918;2023-09-18T04:47:00;23.63;;;22.03;;
8113;SDS011;4099;52.684;9.918;2023-09-18T04:52:03;23.63;;;22.23;;
8113;SDS011;4099;52.684;9.918;2023-09-18T04:57:07;24.90;;;23.40;;
8113;SDS011;4099;52.684;9.918;2023-09-18T05:02:10;29.87;;;28.00;;
8113;SDS011;4099;52.684;9.918;2023-09-18T05:07:12;31.80;;;30.00;;
8113;SDS011;4099;52.684;9.918;2023-09-18T05:12:15;36.23;;;34.23;;
8113;SDS011;4099;52.684;9.918;2023-09-18T05:17:17;37.13;;;35.10;;
8113;SDS011;4099;52.684;9.918;2023-09-18T05:22:19;44.87;;;42.57;;
8113;SDS011;4099;52.684;9.918;2023-09-18T05:27:22;41.53;;;39.50;;
8113;SDS011;4099;52.684;9.918;2023-09-18T05:32:25;37.37;;;35.17;;
8113;SDS011;4099;52.684;9.918;2023-09-18T05:37:27;35.53;;;33.20;;
8113;SDS011;4099;52.684;9.918;2023-09-18T05:42:30;38.37;;;36.37;;
8113;SDS011;4099;52.684;9.918;2023-09-18T05:47:32;44.03;;;41.57;;
8113;SDS011;4099;52.684;9.918;2023-09-18T05:52:35;43.67;;;41.17;;
8113;SDS011;4099;52.684;9.918;2023-09-18T05:57:38;40.80;;;38.53;;
8113;SDS011;4099;52.684;9.918;2023-09-18T06:02:40;42.43;;;40.23;;
8113;SDS011;4099;52.684;9.918;2023-09-18T06:07:43;39.87;;;37.57;;
8113;SDS011;4099;52.684;9.918;2023-09-18T06:12:46;36.57;;;34.70;;
8113;SDS011;4099;52.684;9.918;2023-09-18T06:17:48;29.80;;;28.23;;
8113;SDS011;4099;52.684;9.918;2023-09-18T06:22:50;29.53;;;27.73;;
8113;SDS011;4099;52.684;9.918;2023-09-18T06:27:53;24.70;;;23.20;;
8113;SDS011;4099;52.684;9.918;2023-09-18T06:32:55;25.83;;;24.23;;
8113;SDS011;4099;52.684;9.918;2023-09-18T06:37:57;21.10;;;19.83;;
8113;SDS011;4099;52.684;9.918;2023-09-18T06:43:01;21.73;;;20.53;;
8113;SDS011;4099;52.684;9.918;2023-09-18T06:48:03;20.57;;;19.37;;
8113;SDS011;4099;52.684;9.918;2023-09-18T06:53:06;19.20;;;18.00;;
8113;SDS011;4099;52.684;9.918;2023-09-18T06:58:11;20.83;;;19.43;;
8113;SDS011;4099;52.684;9.918;2023-09-18T07:03:13;19.33;;;18.17;;
8113;SDS011;4099;52.684;9.918;2023-09-18T07:08:15;20.03;;;18.83;;
8113;SDS011;4099;52.684;9.918;2023-09-18T07:13:20;22.40;;;21.30;;
8113;SDS011;4099;52.684;9.918;2023-09-18T07:18:22;21.37;;;19.97;;
8113;SDS011;4099;52.684;9.918;2023-09-18T07:23:24;21.00;;;19.90;;
8113;SDS011;4099;52.684;9.918;2023-09-18T07:28:27;19.87;;;18.67;;
8113;SDS011;4099;52.684;9.918;2023-09-18T07:33:29;19.60;;;18.50;;
8113;SDS011;4099;52.684;9.918;2023-09-18T07:38:31;19.10;;;17.90;;
8113;SDS011;4099;52.684;9.918;2023-09-18T07:43:34;19.50;;;18.40;;
8113;SDS011;4099;52.684;9.918;2023-09-18T07:48:36;20.90;;;19.47;;
8113;SDS011;4099;52.684;9.918;2023-09-18T07:53:39;21.10;;;19.60;;
8113;SDS011;4099;52.684;9.918;2023-09-18T07:58:42;19.33;;;18.17;;
8113;SDS011;4099;52.684;9.918;2023-09-18T08:03:44;21.13;;;19.93;;
8113;SDS011;4099;52.684;9.918;2023-09-18T08:08:46;20.80;;;19.50;;
8113;SDS011;4099;52.684;9.918;2023-09-18T08:13:49;19.90;;;18.50;;
8113;SDS011;4099;52.684;9.918;2023-09-18T08:18:51;20.70;;;19.50;;
8113;SDS011;4099;52.684;9.918;2023-09-18T08:23:53;21.67;;;20.40;;
8113;SDS011;4099;52.684;9.918;2023-09-18T08:28:56;22.83;;;21.63;;
8113;SDS011;4099;52.684;9.918;2023-09-18T08:33:58;20.60;;;19.40;;
8113;SDS011;4099;52.684;9.918;2023-09-18T08:38:59;17.70;;;16.60;;
8113;SDS011;4099;52.684;9.918;2023-09-18T08:44:03;14.83;;;14.03;;
8113;SDS011;4099;52.684;9.918;2023-09-18T08:49:05;14.13;;;13.10;;
8113;SDS011;4099;52.684;9.918;2023-09-18T08:54:08;16.00;;;14.97;;
8113;SDS011;4099;52.684;9.918;2023-09-18T08:59:12;16.40;;;15.40;;
8113;SDS011;4099;52.684;9.918;2023-09-18T09:04:15;13.87;;;12.87;;
8113;SDS011;4099;52.684;9.918;2023-09-18T09:09:17;14.70;;;13.53;;
8113;SDS011;4099;52.684;9.918;2023-09-18T09:14:20;16.63;;;15.60;;
8113;SDS011;4099;52.684;9.918;2023-09-18T09:19:28;28.93;;;27.43;;
8113;SDS011;4099;52.684;9.918;2023-09-18T09:24:38;37.67;;;35.57;;
8113;SDS011;4099;52.684;9.918;2023-09-18T09:29:42;36.97;;;34.90;;
8113;SDS011;4099;52.684;9.918;2023-09-18T09:34:45;37.30;;;35.20;;
8113;SDS011;4099;52.684;9.918;2023-09-18T09:39:48;34.67;;;32.67;;
8113;SDS011;4099;52.684;9.918;2023-09-18T09:45:02;30.37;;;28.87;;
8113;SDS011;4099;52.684;9.918;2023-09-18T09:50:06;36.57;;;34.53;;
8113;SDS011;4099;52.684;9.918;2023-09-18T09:55:20;26.03;;;24.47;;
8113;SDS011;4099;52.684;9.918;2023-09-18T10:00:24;29.40;;;27.60;;
8113;SDS011;4099;52.684;9.918;2023-09-18T10:05:32;31.00;;;29.20;;
8113;SDS011;4099;52.684;9.918;2023-09-18T10:10:36;40.40;;;38.20;;
8113;SDS011;4099;52.684;9.918;2023-09-18T10:15:42;26.10;;;24.50;;
8113;SDS011;4099;52.684;9.918;2023-09-18T10:20:46;25.40;;;23.60;;
8113;SDS011;4099;52.684;9.918;2023-09-18T10:25:53;28.53;;;26.97;;
8113;SDS011;4099;52.684;9.918;2023-09-18T10:31:01;16.33;;;15.20;;
8113;SDS011;4099;52.684;9.918;2023-09-18T10:36:06;25.60;;;24.10;;
8113;SDS011;4099;52.684;9.918;2023-09-18T10:41:09;22.13;;;20.90;;
8113;SDS011;4099;52.684;9.918;2023-09-18T10:46:13;21.53;;;20.07;;
8113;SDS011;4099;52.684;9.918;2023-09-18T10:51:17;13.87;;;12.87;;
8113;SDS011;4099;52.684;9.918;2023-09-18T10:56:21;15.93;;;14.80;;
8113;SDS011;4099;52.684;9.918;2023-09-18T11:01:24;27.10;;;25.40;;
8113;SDS011;4099;52.684;9.918;2023-09-18T11:06:27;25.53;;;24.13;;
8113;SDS011;4099;52.684;9.918;2023-09-18T11:11:30;24.10;;;22.63;;
8113;SDS011;4099;52.684;9.918;2023-09-18T11:16:35;19.50;;;18.30;;
8113;SDS011;4099;52.684;9.918;2023-09-18T11:21:39;21.87;;;20.47;;
8113;SDS011;4099;52.684;9.918;2023-09-18T11:26:45;20.03;;;18.63;;
8113;SDS011;4099;52.684;9.918;2023-09-18T11:31:50;21.13;;;19.90;;
8113;SDS011;4099;52.684;9.918;2023-09-18T11:36:53;27.63;;;25.93;;
8113;SDS011;4099;52.684;9.918;2023-09-18T11:42:05;23.60;;;22.27;;
8113;SDS011;4099;52.684;9.918;2023-09-18T11:47:10;17.43;;;16.43;;
8113;SDS011;4099;52.684;9.918;2023-09-18T11:52:17;13.27;;;12.27;;
8113;SDS011;4099;52.684;9.918;2023-09-18T11:57:19;13.10;;;11.90;;
8113;SDS011;4099;52.684;9.918;2023-09-18T12:02:26;10.83;;;10.13;;
8113;SDS011;4099;52.684;9.918;2023-09-18T12:07:35;13.37;;;12.27;;
8113;SDS011;4099;52.684;9.918;2023-09-18T12:12:37;8.13;;;7.53;;
8113;SDS011;4099;52.684;9.918;2023-09-18T12:17:40;11.50;;;10.80;;
8113;SDS011;4099;52.684;9.918;2023-09-18T12:22:46;11.67;;;10.87;;
8113;SDS011;4099;52.684;9.918;2023-09-18T12:27:51;18.70;;;17.50;;
8113;SDS011;4099;52.684;9.918;2023-09-18T12:32:56;21.33;;;20.03;;
8113;SDS011;4099;52.684;9.918;2023-09-18T12:38:00;14.20;;;12.97;;
8113;SDS011;4099;52.684;9.918;2023-09-18T12:43:04;12.13;;;11.17;;
8113;SDS011;4099;52.684;9.918;2023-09-18T12:48:09;14.10;;;13.30;;
8113;SDS011;4099;52.684;9.918;2023-09-18T12:53:12;15.90;;;15.00;;
8113;SDS011;4099;52.684;9.918;2023-09-18T12:58:18;23.40;;;22.13;;
8113;SDS011;4099;52.684;9.918;2023-09-18T13:03:21;17.97;;;16.87;;
8113;SDS011;4099;52.684;9.918;2023-09-18T13:08:24;17.20;;;16.17;;
8113;SDS011;4099;52.684;9.918;2023-09-18T13:13:26;19.43;;;18.33;;
8113;SDS011;4099;52.684;9.918;2023-09-18T13:18:30;14.80;;;13.80;;
8113;SDS011;4099;52.684;9.918;2023-09-18T13:23:32;21.37;;;20.27;;
8113;SDS011;4099;52.684;9.918;2023-09-18T13:28:35;24.67;;;23.30;;
8113;SDS011;4099;52.684;9.918;2023-09-18T13:33:41;22.53;;;21.07;;
8113;SDS011;4099;52.684;9.918;2023-09-18T13:38:44;23.90;;;22.57;;
8113;SDS011;4099;52.684;9.918;2023-09-18T13:43:46;24.17;;;22.60;;
8113;SDS011;4099;52.684;9.918;2023-09-18T13:48:50;19.73;;;18.57;;
8113;SDS011;4099;52.684;9.918;2023-09-18T13:53:53;38.03;;;35.83;;
8113;SDS011;4099;52.684;9.918;2023-09-18T13:58:57;16.77;;;15.87;;
8113;SDS011;4099;52.684;9.918;2023-09-18T14:04:01;15.77;;;14.70;;
8113;SDS011;4099;52.684;9.918;2023-09-18T14:09:04;12.97;;;12.17;;
8113;SDS011;4099;52.684;9.918;2023-09-18T14:14:06;14.77;;;13.67;;
8113;SDS011;4099;52.684;9.918;2023-09-18T14:19:10;10.30;;;9.60;;
8113;SDS011;4099;52.684;9.918;2023-09-18T14:24:12;8.50;;;8.00;;
8113;SDS011;4099;52.684;9.918;2023-09-18T14:29:14;8.50;;;7.90;;
8113;SDS011;4099;52.684;9.918;2023-09-18T14:34:18;10.40;;;9.83;;
8113;SDS011;4099;52.684;9.918;2023-09-18T14:39:20;7.90;;;7.40;;
8113;SDS011;4099;52.684;9.918;2023-09-18T14:44:22;8.33;;;7.63;;
8113;SDS011;4099;52.684;9.918;2023-09-18T14:49:25;8.37;;;7.60;;
8113;SDS011;4099;52.684;9.918;2023-09-18T14:54:28;8.60;;;7.90;;
8113;SDS011;4099;52.684;9.918;2023-09-18T14:59:30;8.80;;;8.23;;
8113;SDS011;4099;52.684;9.918;2023-09-18T15:04:33;9.03;;;8.30;;
8113;SDS011;4099;52.684;9.918;2023-09-18T15:09:35;11.90;;;11.20;;
8113;SDS011;4099;52.684;9.918;2023-09-18T15:14:38;13.57;;;12.87;;
8113;SDS011;4099;52.684;9.918;2023-09-18T15:19:41;12.90;;;12.13;;
8113;SDS011;4099;52.684;9.918;2023-09-18T15:24:43;15.93;;;14.93;;
8113;SDS011;4099;52.684;9.918;2023-09-18T15:29:46;14.40;;;13.40;;
8113;SDS011;4099;52.684;9.918;2023-09-18T15:34:49;19.23;;;18.10;;
8113;SDS011;4099;52.684;9.918;2023-09-18T15:39:51;15.87;;;14.97;;
8113;SDS011;4099;52.684;9.918;2023-09-18T15:44:53;18.73;;;17.67;;
8113;SDS011;4099;52.684;9.918;2023-09-18T15:49:56;27.03;;;25.40;;
8113;SDS011;4099;52.684;9.918;2023-09-18T15:54:59;26.80;;;25.40;;
8113;SDS011;4099;52.684;9.918;2023-09-18T16:00:02;30.00;;;28.30;;
8113;SDS011;4099;52.684;9.918;2023-09-18T16:05:15;29.10;;;27.33;;
8113;SDS011;4099;52.684;9.918;2023-09-18T16:10:19;23.47;;;22.17;;
8113;SDS011;4099;52.684;9.918;2023-09-18T16:15:21;28.73;;;27.33;;
8113;SDS011;4099;52.684;9.918;2023-09-18T16:20:24;29.93;;;28.43;;
8113;SDS011;4099;52.684;9.918;2023-09-18T16:25:26;29.33;;;28.03;;
8113;SDS011;4099;52.684;9.918;2023-09-18T16:30:27;31.67;;;29.77;;
8113;SDS011;4099;52.684;9.918;2023-09-18T16:35:31;29.37;;;28.07;;
8113;SDS011;4099;52.684;9.918;2023-09-18T16:40:32;26.37;;;25.10;;
8113;SDS011;4099;52.684;9.918;2023-09-18T16:45:34;30.47;;;28.70;;
8113;SDS011;4099;52.684;9.918;2023-09-18T16:50:39;29.87;;;28.30;;
8113;SDS011;4099;52.684;9.918;2023-09-18T16:55:41;29.53;;;27.93;;
8113;SDS011;4099;52.684;9.918;2023-09-18T17:00:43;29.43;;;28.03;;
8113;SDS011;4099;52.684;9.918;2023-09-18T17:05:47;30.17;;;28.50;;
8113;SDS011;4099;52.684;9.918;2023-09-18T17:10:49;28.73;;;27.40;;
8113;SDS011;4099;52.684;9.918;2023-09-18T17:15:51;30.00;;;28.43;;
8113;SDS011;4099;52.684;9.918;2023-09-18T17:20:54;31.17;;;29.63;;
8113;SDS011;4099;52.684;9.918;2023-09-18T17:25:56;31.97;;;30.50;;
8113;SDS011;4099;52.684;9.918;2023-09-18T17:30:59;32.37;;;30.77;;
8113;SDS011;4099;52.684;9.918;2023-09-18T17:36:03;26.60;;;25.27;;
8113;SDS011;4099;52.684;9.918;2023-09-18T17:41:05;24.17;;;22.97;;
8113;SDS011;4099;52.684;9.918;2023-09-18T17:46:08;24.27;;;22.67;;
8113;SDS011;4099;52.684;9.918;2023-09-18T17:51:11;20.57;;;19.27;;
8113;SDS011;4099;52.684;9.918;2023-09-18T17:56:14;17.57;;;16.50;;
8113;SDS011;4099;52.684;9.918;2023-09-18T18:01:16;15.23;;;14.43;;
8113;SDS011;4099;52.684;9.918;2023-09-18T18:06:20;13.63;;;12.90;;
8113;SDS011;4099;52.684;9.918;2023-09-18T18:11:22;12.43;;;11.50;;
8113;SDS011;4099;52.684;9.918;2023-09-18T18:16:24;12.87;;;11.77;;
8113;SDS011;4099;52.684;9.918;2023-09-18T18:21:27;13.07;;;12.17;;
8113;SDS011;4099;52.684;9.918;2023-09-18T18:26:29;12.43;;;11.73;;
8113;SDS011;4099;52.684;9.918;2023-09-18T18:31:33;13.07;;;12.33;;
8113;SDS011;4099;52.684;9.918;2023-09-18T18:36:37;13.40;;;12.53;;
8113;SDS011;4099;52.684;9.918;2023-09-18T18:41:39;14.23;;;13.07;;
8113;SDS011;4099;52.684;9.918;2023-09-18T18:46:41;13.63;;;12.73;;
8113;SDS011;4099;52.684;9.918;2023-09-18T18:51:44;12.60;;;11.70;;
8113;SDS011;4099;52.684;9.918;2023-09-18T18:56:46;12.23;;;11.60;;
8113;SDS011;4099;52.684;9.918;2023-09-18T19:01:48;11.87;;;11.23;;
8113;SDS011;4099;52.684;9.918;2023-09-18T19:06:51;11.63;;;10.80;;
8113;SDS011;4099;52.684;9.918;2023-09-18T19:11:53;10.80;;;10.20;;
8113;SDS011;4099;52.684;9.918;2023-09-18T19:16:57;10.87;;;10.07;;
8113;SDS011;4099;52.684;9.918;2023-09-18T19:22:01;11.83;;;11.03;;
8113;SDS011;4099;52.684;9.918;2023-09-18T19:27:03;14.33;;;13.53;;
8113;SDS011;4099;52.684;9.918;2023-09-18T19:32:06;14.13;;;13.33;;
8113;SDS011;4099;52.684;9.918;2023-09-18T19:37:09;14.67;;;13.87;;
8113;SDS011;4099;52.684;9.918;2023-09-18T19:42:11;14.27;;;13.37;;
8113;SDS011;4099;52.684;9.918;2023-09-18T19:47:13;14.00;;;13.30;;
8113;SDS011;4099;52.684;9.918;2023-09-18T19:52:16;12.60;;;11.90;;
8113;SDS011;4099;52.684;9.918;2023-09-18T19:57:18;11.90;;;11.10;;
8113;SDS011;4099;52.684;9.918;2023-09-18T20:02:20;12.20;;;11.43;;
8113;SDS011;4099;52.684;9.918;2023-09-18T20:07:23;11.67;;;10.80;;
8113;SDS011;4099;52.684;9.918;2023-09-18T20:12:25;11.93;;;11.23;;
8113;SDS011;4099;52.684;9.918;2023-09-18T20:17:27;12.63;;;12.03;;
8113;SDS011;4099;52.684;9.918;2023-09-18T20:22:30;11.73;;;11.13;;
8113;SDS011;4099;52.684;9.918;2023-09-18T20:27:32;12.13;;;11.20;;
8113;SDS011;4099;52.684;9.918;2023-09-18T20:32:38;16.30;;;15.30;;
8113;SDS011;4099;52.684;9.918;2023-09-18T20:37:42;10.63;;;9.97;;
8113;SDS011;4099;52.684;9.918;2023-09-18T20:42:44;12.50;;;11.90;;
8113;SDS011;4099;52.684;9.918;2023-09-18T20:47:46;42.23;;;40.30;;
8113;SDS011;4099;52.684;9.918;2023-09-18T20:52:50;18.70;;;17.67;;
8113;SDS011;4099;52.684;9.918;2023-09-18T20:57:51;10.60;;;10.10;;
8113;SDS011;4099;52.684;9.918;2023-09-18T21:02:53;9.43;;;9.03;;
8113;SDS011;4099;52.684;9.918;2023-09-18T21:07:56;9.10;;;8.70;;
8113;SDS011;4099;52.684;9.918;2023-09-18T21:12:58;15.90;;;15.10;;
8113;SDS011;4099;52.684;9.918;2023-09-18T21:18:00;18.77;;;17.97;;
8113;SDS011;4099;52.684;9.918;2023-09-18T21:23:04;25.90;;;24.70;;
8113;SDS011;4099;52.684;9.918;2023-09-18T21:28:06;43.13;;;41.27;;
8113;SDS011;4099;52.684;9.918;2023-09-18T21:33:08;47.50;;;45.53;;
8113;SDS011;4099;52.684;9.918;2023-09-18T21:38:12;45.20;;;43.23;;
8113;SDS011;4099;52.684;9.918;2023-09-18T21:43:14;46.57;;;44.63;;
8113;SDS011;4099;52.684;9.918;2023-09-18T21:48:16;41.07;;;39.33;;
8113;SDS011;4099;52.684;9.918;2023-09-18T21:53:19;42.17;;;40.43;;
8113;SDS011;4099;52.684;9.918;2023-09-18T21:58:23;43.50;;;41.63;;
8113;SDS011;4099;52.684;9.918;2023-09-18T22:03:25;43.97;;;41.97;;
8113;SDS011;4099;52.684;9.918;2023-09-18T22:08:29;38.57;;;36.83;;
8113;SDS011;4099;52.684;9.918;2023-09-18T22:13:31;32.37;;;30.93;;
8113;SDS011;4099;52.684;9.918;2023-09-18T22:18:33;30.47;;;29.07;;
8113;SDS011;4099;52.684;9.918;2023-09-18T22:23:36;33.03;;;31.47;;
8113;SDS011;4099;52.684;9.918;2023-09-18T22:28:38;31.77;;;30.33;;
8113;SDS011;4099;52.684;9.918;2023-09-18T22:33:41;30.37;;;28.97;;
8113;SDS011;4099;52.684;9.918;2023-09-18T22:38:47;33.33;;;31.83;;
8113;SDS011;4099;52.684;9.918;2023-09-18T22:55:16;22.57;;;21.53;;
8113;SDS011;4099;52.684;9.918;2023-09-18T23:00:20;23.57;;;22.37;;
8113;SDS011;4099;52.684;9.918;2023-09-18T23:05:24;23.20;;;22.20;;
8113;SDS011;4099;52.684;9.918;2023-09-18T23:10:30;25.90;;;24.77;;
8113;SDS011;4099;52.684;9.918;2023-09-18T23:15:32;25.60;;;24.43;;
8113;SDS011;4099;52.684;9.918;2023-09-18T23:20:35;24.40;;;23.30;;
8113;SDS011;4099;52.684;9.918;2023-09-18T23:25:38;27.50;;;26.30;;
8113;SDS011;4099;52.684;9.918;2023-09-18T23:30:45;26.63;;;25.43;;
8113;SDS011;4099;52.684;9.918;2023-09-18T23:35:47;30.97;;;29.33;;
8113;SDS011;4099;52.684;9.918;2023-09-18T23:40:51;25.87;;;24.77;;
8113;SDS011;4099;52.684;9.918;2023-09-18T23:45:54;30.40;;;29.10;;
8113;SDS011;4099;52.684;9.918;2023-09-18T23:50:58;29.17;;;27.87;;
8113;SDS011;4099;52.684;9.918;2023-09-18T23:56:02;26.33;;;25.10;;
